createdAt,value
2017-09-21T00:01:54.670Z,21.73
2017-09-21T00:04:23.533Z,23.85
2017-09-21T00:06:51.694Z,22.10
2017-09-21T00:09:19.875Z,23.35
2017-09-21T00:11:47.982Z,22.95
2017-09-21T00:14:16.843Z,22.62
2017-09-21T00:16:45.001Z,24.70
2017-09-21T00:19:13.117Z,21.17
2017-09-21T00:21:41.578Z,21.50
2017-09-21T00:24:09.739Z,21.75
2017-09-21T00:26:38.221Z,22.95
2017-09-21T00:29:06.390Z,24.25
2017-09-21T00:31:34.473Z,24.10
2017-09-21T00:34:02.586Z,20.25
2017-09-21T00:36:31.123Z,23.83
2017-09-21T00:38:59.225Z,21.87
2017-09-21T00:41:28.177Z,19.02
2017-09-21T00:43:56.662Z,19.62
2017-09-21T00:46:24.833Z,21.40
2017-09-21T00:48:53.351Z,22.23
2017-09-21T00:51:21.902Z,17.27
2017-09-21T00:53:49.986Z,19.02
2017-09-21T00:56:18.094Z,16.90
2017-09-21T00:58:46.630Z,20.02
2017-09-21T01:01:14.742Z,17.95
2017-09-21T01:03:43.701Z,19.25
2017-09-21T01:06:12.183Z,18.65
2017-09-21T01:08:40.354Z,19.75
2017-09-21T01:11:08.526Z,19.35
2017-09-21T01:13:36.707Z,18.25
2017-09-21T01:16:06.310Z,19.33
2017-09-21T01:18:34.398Z,17.48
2017-09-21T01:21:04.402Z,18.90
2017-09-21T01:23:32.577Z,20.73
2017-09-21T01:26:00.668Z,20.25
2017-09-21T01:28:29.225Z,17.02
2017-09-21T01:30:57.346Z,19.23
2017-09-21T01:33:25.473Z,19.83
2017-09-21T01:35:53.690Z,16.75
2017-09-21T01:38:22.207Z,16.62
2017-09-21T01:40:50.290Z,16.12
2017-09-21T01:43:18.774Z,17.48
2017-09-21T01:45:46.874Z,17.90
2017-09-21T01:48:14.954Z,14.87
2017-09-21T01:50:43.050Z,15.10
2017-09-21T01:53:11.131Z,19.87
2017-09-21T01:55:40.002Z,13.80
2017-09-21T01:58:08.846Z,15.32
2017-09-21T02:00:36.926Z,17.08
2017-09-21T02:03:05.058Z,13.15
2017-09-21T02:05:33.535Z,14.20
2017-09-21T02:08:02.033Z,11.85
2017-09-21T02:10:30.878Z,13.25
2017-09-21T02:12:58.958Z,12.73
2017-09-21T02:15:27.830Z,15.88
2017-09-21T02:17:57.413Z,13.88
2017-09-21T02:20:25.499Z,19.85
2017-09-21T02:22:53.598Z,13.20
2017-09-21T02:25:22.449Z,12.68
2017-09-21T02:27:50.543Z,13.38
2017-09-21T02:30:18.725Z,13.13
2017-09-21T02:32:46.822Z,12.07
2017-09-21T02:35:15.295Z,12.45
2017-09-21T02:37:44.154Z,15.00
2017-09-21T02:40:12.234Z,13.68
2017-09-21T02:42:40.341Z,12.93
2017-09-21T02:45:09.190Z,18.87
2017-09-21T02:47:37.322Z,13.05
2017-09-21T02:50:05.426Z,12.48
2017-09-21T02:52:33.506Z,12.45
2017-09-21T02:55:01.582Z,11.75
2017-09-21T02:57:29.679Z,13.50
2017-09-21T02:59:58.548Z,11.93
2017-09-21T03:02:26.629Z,20.52
2017-09-21T03:04:54.725Z,11.27
2017-09-21T03:07:23.590Z,11.35
2017-09-21T03:09:51.670Z,11.48
2017-09-21T03:12:19.746Z,10.65
2017-09-21T03:14:47.842Z,11.00
2017-09-21T03:17:15.922Z,12.77
2017-09-21T03:19:44.139Z,11.75
2017-09-21T03:22:12.314Z,11.88
2017-09-21T03:24:40.400Z,11.57
2017-09-21T03:27:08.885Z,15.57
2017-09-21T03:29:36.978Z,13.50
2017-09-21T03:32:05.856Z,11.38
2017-09-21T03:34:33.918Z,12.07
2017-09-21T03:37:01.990Z,10.45
2017-09-21T03:39:30.082Z,9.65
2017-09-21T03:41:58.917Z,11.73
2017-09-21T03:44:27.010Z,13.50
2017-09-21T03:46:55.080Z,9.73
2017-09-21T03:49:23.562Z,10.13
2017-09-21T03:51:51.654Z,10.45
2017-09-21T03:54:20.499Z,14.87
2017-09-21T03:56:48.698Z,10.50
2017-09-21T03:59:17.562Z,11.55
2017-09-21T04:01:45.639Z,9.90
2017-09-21T04:04:14.855Z,11.52
2017-09-21T04:06:43.351Z,10.50
2017-09-21T04:09:11.424Z,11.63
2017-09-21T04:11:39.499Z,11.00
2017-09-21T04:14:07.598Z,11.70
2017-09-21T04:16:36.442Z,13.18
2017-09-21T04:19:04.539Z,10.93
2017-09-21T04:21:32.614Z,10.63
2017-09-21T04:24:00.710Z,11.27
2017-09-21T04:26:28.786Z,14.70
2017-09-21T04:28:56.886Z,10.30
2017-09-21T04:31:24.962Z,11.00
2017-09-21T04:33:53.050Z,10.82
2017-09-21T04:42:43.488Z,11.00
2017-09-21T04:45:12.121Z,10.45
2017-09-21T04:47:40.969Z,11.57
2017-09-21T04:50:09.051Z,11.15
2017-09-21T04:52:37.143Z,15.00
2017-09-21T04:55:05.248Z,16.33
2017-09-21T04:57:34.079Z,11.57
2017-09-21T05:00:02.187Z,9.73
2017-09-21T05:02:31.604Z,15.63
2017-09-21T05:04:59.994Z,14.27
2017-09-21T05:07:28.087Z,11.73
2017-09-21T05:09:57.315Z,10.88
2017-09-21T05:12:25.394Z,8.50
2017-09-21T05:14:53.545Z,9.73
2017-09-21T05:17:21.726Z,9.40
2017-09-21T05:19:49.800Z,8.77
2017-09-21T05:22:18.639Z,11.20
2017-09-21T05:24:47.587Z,13.60
2017-09-21T05:27:15.677Z,17.12
2017-09-21T05:29:43.835Z,15.07
2017-09-21T05:32:11.998Z,15.25
2017-09-21T05:34:40.083Z,14.93
2017-09-21T05:37:08.274Z,16.77
2017-09-21T05:39:36.425Z,18.35
2017-09-21T05:42:05.006Z,20.75
2017-09-21T05:44:33.177Z,31.83
2017-09-21T05:47:01.654Z,19.52
2017-09-21T05:49:30.117Z,20.98
2017-09-21T05:51:58.243Z,15.55
2017-09-21T05:54:26.807Z,16.85
2017-09-21T05:56:54.979Z,25.50
2017-09-21T05:59:23.146Z,12.05
2017-09-21T06:01:51.615Z,16.83
2017-09-21T06:04:19.690Z,15.23
2017-09-21T06:06:48.178Z,13.18
2017-09-21T06:09:16.665Z,16.67
2017-09-21T06:11:44.737Z,16.83
2017-09-21T06:14:13.325Z,19.75
2017-09-21T06:16:41.494Z,17.17
2017-09-21T06:19:09.585Z,18.92
2017-09-21T06:21:37.743Z,16.70
2017-09-21T06:24:05.917Z,18.75
2017-09-21T06:26:34.085Z,16.73
2017-09-21T06:29:02.262Z,23.40
2017-09-21T06:31:30.341Z,17.50
2017-09-21T06:33:58.506Z,24.75
2017-09-21T06:36:26.694Z,17.27
2017-09-21T06:38:54.865Z,22.20
2017-09-21T06:41:23.745Z,20.67
2017-09-21T06:43:51.917Z,18.25
2017-09-21T06:46:20.101Z,20.05
2017-09-21T06:48:48.265Z,16.95
2017-09-21T06:51:16.442Z,19.70
2017-09-21T06:53:44.518Z,12.88
2017-09-21T06:56:13.098Z,14.55
2017-09-21T06:58:41.681Z,18.85
2017-09-21T07:01:09.858Z,15.70
2017-09-21T07:03:38.437Z,23.10
2017-09-21T07:06:06.643Z,15.43
2017-09-21T07:08:34.746Z,17.77
2017-09-21T07:11:02.869Z,19.58
2017-09-21T07:13:31.364Z,23.05
2017-09-21T07:15:59.857Z,15.35
2017-09-21T07:18:28.705Z,20.17
2017-09-21T07:20:56.806Z,21.67
2017-09-21T07:23:24.899Z,17.87
2017-09-21T07:25:53.755Z,18.15
2017-09-21T07:28:21.858Z,21.95
2017-09-21T07:30:50.715Z,28.92
2017-09-21T07:33:19.232Z,22.23
2017-09-21T07:35:48.077Z,19.77
2017-09-21T07:38:16.564Z,21.33
2017-09-21T07:40:44.672Z,28.70
2017-09-21T07:43:13.159Z,25.70
2017-09-21T07:45:41.676Z,33.65
2017-09-21T07:48:10.525Z,35.97
2017-09-21T07:50:39.380Z,24.15
2017-09-21T07:53:07.500Z,28.98
2017-09-21T07:55:36.450Z,28.50
2017-09-21T07:58:04.542Z,30.90
2017-09-21T08:00:32.649Z,38.60
2017-09-21T08:03:00.766Z,31.30
2017-09-21T08:05:28.937Z,29.35
2017-09-21T08:07:57.126Z,35.58
2017-09-21T08:10:25.211Z,31.23
2017-09-21T08:12:53.367Z,30.62
2017-09-21T08:15:21.455Z,37.80
2017-09-21T08:17:50.017Z,37.70
2017-09-21T08:20:18.109Z,34.67
2017-09-21T08:22:46.673Z,47.40
2017-09-21T08:25:14.845Z,37.80
2017-09-21T08:27:42.965Z,38.13
2017-09-21T08:30:11.474Z,44.30
2017-09-21T08:32:39.567Z,40.38
2017-09-21T08:35:07.654Z,45.28
2017-09-21T08:37:35.763Z,50.78
2017-09-21T08:40:04.714Z,48.58
2017-09-21T08:42:33.608Z,44.75
2017-09-21T08:45:01.783Z,44.60
2017-09-21T08:47:29.957Z,47.17
2017-09-21T08:49:58.121Z,42.72
2017-09-21T08:52:26.604Z,43.65
2017-09-21T08:54:54.699Z,43.20
2017-09-21T08:57:23.266Z,42.60
2017-09-21T08:59:51.369Z,41.72
2017-09-21T09:02:20.226Z,48.22
2017-09-21T09:04:48.412Z,45.55
2017-09-21T09:07:16.577Z,44.67
2017-09-21T09:09:44.653Z,44.50
2017-09-21T09:12:12.827Z,41.90
2017-09-21T09:14:42.530Z,46.97
2017-09-21T09:17:10.701Z,49.45
2017-09-21T09:19:38.892Z,47.33
2017-09-21T09:22:08.590Z,44.00
2017-09-21T09:24:36.694Z,46.70
2017-09-21T09:27:05.546Z,54.13
2017-09-21T09:29:33.731Z,51.65
2017-09-21T09:32:01.991Z,47.97
2017-09-21T09:34:30.488Z,51.35
2017-09-21T09:36:58.566Z,51.92
2017-09-21T09:39:26.722Z,49.60
2017-09-21T09:41:54.912Z,42.33
2017-09-21T09:44:23.003Z,45.42
2017-09-21T09:46:51.505Z,51.75
2017-09-21T09:49:19.990Z,54.63
2017-09-21T09:51:48.114Z,46.28
2017-09-21T09:54:16.617Z,48.40
2017-09-21T09:56:45.177Z,48.28
2017-09-21T09:59:13.362Z,52.13
2017-09-21T10:01:41.499Z,48.80
2017-09-21T10:04:09.577Z,44.35
2017-09-21T10:06:37.685Z,48.33
2017-09-21T10:09:05.841Z,45.95
2017-09-21T10:11:33.922Z,48.20
2017-09-21T10:14:02.089Z,45.58
2017-09-21T10:16:30.169Z,43.80
2017-09-21T10:18:58.282Z,41.70
2017-09-21T10:21:26.797Z,46.10
2017-09-21T10:23:54.891Z,44.05
2017-09-21T10:26:23.066Z,46.88
2017-09-21T10:28:51.656Z,45.70
2017-09-21T10:31:19.769Z,47.38
2017-09-21T10:33:47.894Z,49.63
2017-09-21T10:36:15.974Z,38.65
2017-09-21T10:38:44.142Z,44.30
2017-09-21T10:41:12.225Z,46.72
2017-09-21T10:43:40.385Z,41.03
2017-09-21T10:46:08.565Z,41.37
2017-09-21T10:48:36.649Z,41.95
2017-09-21T10:51:04.761Z,44.30
2017-09-21T10:53:32.850Z,39.67
2017-09-21T10:56:00.939Z,40.38
2017-09-21T10:58:29.051Z,35.90
2017-09-21T11:00:57.137Z,35.20
2017-09-21T11:03:26.015Z,37.83
2017-09-21T11:05:54.093Z,39.13
2017-09-21T11:08:22.969Z,38.60
2017-09-21T11:10:51.050Z,37.28
2017-09-21T11:13:19.927Z,34.60
2017-09-21T11:15:48.033Z,36.90
2017-09-21T11:18:16.138Z,36.53
2017-09-21T11:20:44.221Z,36.63
2017-09-21T11:23:12.328Z,33.85
2017-09-21T11:25:40.426Z,33.75
2017-09-21T11:28:08.521Z,37.55
2017-09-21T11:30:36.631Z,32.80
2017-09-21T11:33:04.782Z,31.58
2017-09-21T11:35:32.857Z,33.40
2017-09-21T11:38:00.953Z,32.58
2017-09-21T11:40:29.041Z,31.67
2017-09-21T11:42:57.910Z,31.02
2017-09-21T11:45:26.394Z,30.30
2017-09-21T11:47:54.501Z,27.75
2017-09-21T11:50:23.346Z,26.60
2017-09-21T11:52:51.435Z,24.37
2017-09-21T11:55:19.933Z,21.98
2017-09-21T11:57:48.787Z,22.75
2017-09-21T12:00:16.901Z,22.33
2017-09-21T12:02:46.439Z,19.73
2017-09-21T12:05:14.537Z,21.87
2017-09-21T12:07:43.389Z,21.65
2017-09-21T12:10:11.911Z,22.87
2017-09-21T12:12:40.397Z,22.52
2017-09-21T12:15:08.478Z,20.55
2017-09-21T12:17:36.591Z,21.50
2017-09-21T12:20:04.674Z,21.00
2017-09-21T12:22:32.805Z,17.20
2017-09-21T12:25:00.926Z,18.20
2017-09-21T12:27:29.010Z,17.62
2017-09-21T12:29:57.095Z,17.00
2017-09-21T12:32:25.198Z,18.87
2017-09-21T12:34:54.063Z,9.90
2017-09-21T12:37:22.146Z,14.43
2017-09-21T12:39:50.234Z,13.40
2017-09-21T12:42:18.348Z,12.68
2017-09-21T12:44:46.422Z,10.90
2017-09-21T12:47:14.526Z,11.38
2017-09-21T12:49:42.605Z,11.45
2017-09-21T12:52:10.686Z,7.80
2017-09-21T12:54:38.778Z,10.10
2017-09-21T12:57:06.842Z,8.05
2017-09-21T12:59:34.929Z,8.43
2017-09-21T13:02:03.798Z,8.60
2017-09-21T13:04:32.267Z,9.75
2017-09-21T13:07:00.350Z,12.80
2017-09-21T13:09:28.463Z,12.30
2017-09-21T13:11:56.934Z,13.07
2017-09-21T13:14:25.415Z,13.02
2017-09-21T13:16:53.534Z,13.48
2017-09-21T13:19:21.609Z,10.18
2017-09-21T13:21:49.706Z,10.95
2017-09-21T13:24:17.798Z,10.55
2017-09-21T13:26:46.643Z,9.60
2017-09-21T13:29:14.737Z,13.85
2017-09-21T13:31:42.818Z,11.20
2017-09-21T13:34:10.909Z,11.07
2017-09-21T13:36:39.772Z,10.75
2017-09-21T13:39:07.866Z,9.13
2017-09-21T13:41:36.702Z,10.65
2017-09-21T13:44:05.198Z,16.73
2017-09-21T13:46:34.041Z,10.60
2017-09-21T13:49:02.147Z,15.55
2017-09-21T13:51:30.235Z,9.23
2017-09-21T13:53:58.320Z,9.15
2017-09-21T13:56:26.425Z,9.48
2017-09-21T13:58:55.266Z,7.65
2017-09-21T14:01:23.339Z,6.43
2017-09-21T14:03:51.447Z,6.70
2017-09-21T14:06:20.277Z,7.40
2017-09-21T14:08:48.374Z,7.78
2017-09-21T14:11:17.833Z,7.62
2017-09-21T14:13:46.294Z,6.20
2017-09-21T14:16:15.149Z,5.28
2017-09-21T14:18:43.226Z,7.20
2017-09-21T14:21:11.310Z,5.82
2017-09-21T14:23:39.374Z,5.15
2017-09-21T14:26:07.472Z,7.37
2017-09-21T14:28:35.542Z,7.10
2017-09-21T14:31:03.667Z,5.80
2017-09-21T14:33:31.739Z,8.90
2017-09-21T14:35:59.810Z,5.10
2017-09-21T14:38:27.894Z,6.12
2017-09-21T14:40:55.957Z,7.40
2017-09-21T14:43:24.049Z,6.50
2017-09-21T14:45:52.119Z,6.85
2017-09-21T14:48:20.191Z,6.85
2017-09-21T14:50:48.317Z,7.45
2017-09-21T14:53:16.391Z,6.22
2017-09-21T14:55:44.461Z,7.10
2017-09-21T14:58:12.550Z,5.55
2017-09-21T15:00:40.628Z,6.07
2017-09-21T15:03:08.702Z,5.75
2017-09-21T15:05:36.809Z,5.75
2017-09-21T15:08:04.887Z,7.18
2017-09-21T15:10:32.971Z,5.57
2017-09-21T15:13:01.837Z,7.87
2017-09-21T15:15:29.893Z,4.70
2017-09-21T15:17:58.003Z,6.93
2017-09-21T15:20:26.855Z,5.62
2017-09-21T15:22:54.929Z,4.87
2017-09-21T15:25:23.106Z,5.62
2017-09-21T15:27:51.619Z,6.05
2017-09-21T15:30:20.464Z,5.82
2017-09-21T15:32:48.534Z,5.95
2017-09-21T15:35:16.629Z,6.20
2017-09-21T15:37:44.698Z,6.18
2017-09-21T15:40:12.854Z,6.95
2017-09-21T15:42:40.894Z,6.05
2017-09-21T15:45:08.971Z,5.62
2017-09-21T15:47:37.078Z,6.15
2017-09-21T15:50:05.145Z,7.82
2017-09-21T15:52:33.221Z,5.30
2017-09-21T15:55:01.390Z,6.95
2017-09-21T15:57:30.201Z,4.90
2017-09-21T15:59:58.279Z,5.65
2017-09-21T16:02:26.768Z,5.97
2017-09-21T16:04:55.268Z,6.40
2017-09-21T16:07:24.118Z,4.53
2017-09-21T16:09:52.227Z,9.95
2017-09-21T16:12:20.689Z,5.53
2017-09-21T16:14:48.758Z,6.05
2017-09-21T16:17:16.862Z,5.60
2017-09-21T16:19:45.711Z,6.53
2017-09-21T16:22:13.777Z,5.72
2017-09-21T16:24:41.874Z,4.03
2017-09-21T16:27:09.950Z,6.75
2017-09-21T16:29:38.063Z,4.70
2017-09-21T16:32:06.149Z,4.87
2017-09-21T16:34:34.242Z,4.90
2017-09-21T16:37:02.340Z,5.20
2017-09-21T16:39:30.418Z,6.35
2017-09-21T16:41:59.259Z,6.78
2017-09-21T16:44:27.349Z,4.72
2017-09-21T16:46:55.438Z,6.35
2017-09-21T16:49:23.548Z,5.60
2017-09-21T16:51:51.613Z,5.60
2017-09-21T16:54:19.681Z,4.93
2017-09-21T16:56:48.605Z,5.15
2017-09-21T16:59:16.694Z,6.10
2017-09-21T17:01:44.811Z,6.87
2017-09-21T17:04:13.653Z,5.43
2017-09-21T17:06:41.744Z,6.43
2017-09-21T17:09:09.838Z,6.82
2017-09-21T17:11:38.617Z,7.93
2017-09-21T17:14:06.690Z,6.10
2017-09-21T17:16:34.783Z,7.65
2017-09-21T17:19:03.641Z,6.00
2017-09-21T17:21:31.742Z,5.18
2017-09-21T17:24:00.613Z,5.95
2017-09-21T17:26:28.717Z,5.57
2017-09-21T17:28:56.781Z,6.20
2017-09-21T17:31:26.229Z,13.23
2017-09-21T17:33:55.581Z,8.05
2017-09-21T17:36:23.563Z,8.15
2017-09-21T17:38:52.432Z,7.80
2017-09-21T17:41:20.517Z,6.85
2017-09-21T17:43:49.378Z,6.93
2017-09-21T17:46:18.802Z,5.62
2017-09-21T17:48:47.565Z,8.45
2017-09-21T17:51:16.402Z,6.15
2017-09-21T17:53:44.523Z,8.18
2017-09-21T17:56:12.591Z,11.85
2017-09-21T17:58:41.449Z,7.18
2017-09-21T18:01:09.521Z,7.45
2017-09-21T18:03:37.618Z,7.62
2017-09-21T18:06:07.235Z,7.28
2017-09-21T18:08:35.326Z,6.80
2017-09-21T18:11:03.409Z,7.75
2017-09-21T18:13:31.520Z,11.65
2017-09-21T18:15:59.602Z,8.13
2017-09-21T18:18:27.670Z,8.38
2017-09-21T18:20:55.772Z,8.52
2017-09-21T18:23:23.851Z,8.05
2017-09-21T18:25:51.922Z,9.95
2017-09-21T18:28:20.017Z,7.65
2017-09-21T18:30:50.059Z,8.30
2017-09-21T18:33:18.911Z,8.50
2017-09-21T18:35:47.113Z,11.30
2017-09-21T18:38:16.459Z,7.95
2017-09-21T18:40:44.530Z,7.72
2017-09-21T18:43:12.642Z,8.35
2017-09-21T18:45:42.260Z,7.18
2017-09-21T18:48:11.520Z,10.40
2017-09-21T18:50:40.995Z,7.62
2017-09-21T18:53:09.003Z,7.43
2017-09-21T18:55:37.090Z,9.88
2017-09-21T18:58:05.191Z,9.10
2017-09-21T19:00:33.265Z,8.32
2017-09-21T19:03:01.734Z,8.07
2017-09-21T19:05:31.593Z,12.25
2017-09-21T19:07:59.586Z,9.85
2017-09-21T19:10:27.674Z,7.57
2017-09-21T19:12:57.356Z,8.95
2017-09-21T19:15:25.460Z,8.02
2017-09-21T19:17:53.538Z,7.82
2017-09-21T19:20:22.375Z,8.20
2017-09-21T19:22:50.472Z,8.43
2017-09-21T19:25:18.542Z,8.88
2017-09-21T19:27:47.142Z,8.63
2017-09-21T19:30:16.592Z,8.82
2017-09-21T19:32:44.577Z,7.35
2017-09-21T19:35:12.637Z,8.25
2017-09-21T19:37:41.498Z,8.63
2017-09-21T19:40:10.329Z,7.40
2017-09-21T19:42:39.563Z,6.50
2017-09-21T19:45:07.639Z,8.52
2017-09-21T19:47:35.738Z,7.00
2017-09-21T19:50:04.578Z,7.50
2017-09-21T19:52:32.647Z,9.27
2017-09-21T19:55:01.513Z,7.28
2017-09-21T19:57:29.603Z,8.20
2017-09-21T19:59:57.711Z,7.72
2017-09-21T20:02:27.125Z,9.38
2017-09-21T20:04:56.640Z,7.32
2017-09-21T20:07:25.479Z,7.05
2017-09-21T20:09:53.563Z,8.25
2017-09-21T20:12:21.658Z,8.18
2017-09-21T20:14:49.770Z,7.90
2017-09-21T20:17:17.862Z,6.85
2017-09-21T20:19:46.693Z,8.25
2017-09-21T20:22:14.787Z,6.80
2017-09-21T20:24:43.626Z,10.38
2017-09-21T20:27:12.533Z,7.18
2017-09-21T20:29:42.216Z,8.45
2017-09-21T20:32:11.613Z,7.22
2017-09-21T20:34:39.598Z,6.50
2017-09-21T20:37:07.697Z,7.47
2017-09-21T20:39:37.370Z,7.55
2017-09-21T20:42:06.569Z,8.55
2017-09-21T20:44:35.410Z,9.55
2017-09-21T20:47:04.246Z,6.53
2017-09-21T20:49:32.424Z,9.38
2017-09-21T20:52:00.465Z,9.48
2017-09-21T20:54:29.301Z,7.22
2017-09-21T20:56:57.399Z,7.93
2017-09-21T20:59:26.610Z,8.02
2017-09-21T21:01:55.472Z,9.77
2017-09-21T21:04:23.554Z,8.18
2017-09-21T21:06:53.129Z,7.00
2017-09-21T21:09:21.618Z,9.10
2017-09-21T21:11:49.707Z,9.35
2017-09-21T21:14:17.814Z,8.93
2017-09-21T21:16:46.651Z,6.45
2017-09-21T21:19:14.722Z,8.50
2017-09-21T21:21:42.835Z,9.60
2017-09-21T21:24:11.690Z,6.78
2017-09-21T21:26:39.757Z,7.20
2017-09-21T21:29:07.837Z,8.55
2017-09-21T21:31:35.918Z,9.13
2017-09-21T21:34:04.006Z,8.38
2017-09-21T21:36:32.086Z,8.07
2017-09-21T21:39:01.699Z,12.30
2017-09-21T21:41:30.533Z,8.13
2017-09-21T21:43:58.603Z,9.75
2017-09-21T21:46:26.694Z,6.68
2017-09-21T21:48:54.761Z,7.35
2017-09-21T21:51:22.859Z,9.60
2017-09-21T21:53:52.448Z,9.32
2017-09-21T21:56:20.513Z,6.60
2017-09-21T21:58:48.619Z,7.32
2017-09-21T22:01:17.459Z,9.63
2017-09-21T22:03:45.531Z,6.87
2017-09-21T22:06:13.626Z,7.05
2017-09-21T22:08:41.705Z,6.80
2017-09-21T22:11:09.779Z,7.12
2017-09-21T22:13:37.865Z,7.20
2017-09-21T22:16:06.735Z,7.70
2017-09-21T22:18:34.805Z,7.82
2017-09-21T22:21:02.882Z,8.00
2017-09-21T22:23:32.324Z,6.45
2017-09-21T22:26:00.343Z,7.05
2017-09-21T22:28:28.409Z,6.80
2017-09-21T22:30:56.495Z,6.62
2017-09-21T22:33:24.581Z,6.32
2017-09-21T22:35:52.659Z,7.03
2017-09-21T22:38:22.261Z,6.18
2017-09-21T22:40:50.334Z,6.00
2017-09-21T22:43:18.406Z,6.00
2017-09-21T22:45:46.493Z,8.93
2017-09-21T22:48:15.340Z,5.93
2017-09-21T22:50:44.192Z,7.57
2017-09-21T22:53:12.273Z,7.43
2017-09-21T22:55:40.387Z,6.35
2017-09-21T22:58:08.462Z,5.60
2017-09-21T23:00:38.037Z,9.02
2017-09-21T23:03:07.274Z,5.40
2017-09-21T23:05:35.354Z,7.18
2017-09-21T23:08:04.778Z,9.73
2017-09-21T23:10:33.187Z,6.82
2017-09-21T23:13:01.651Z,6.25
2017-09-21T23:15:29.722Z,7.30
2017-09-21T23:17:57.809Z,6.28
2017-09-21T23:20:26.709Z,6.10
2017-09-21T23:22:54.777Z,6.53
2017-09-21T23:25:22.845Z,5.90
2017-09-21T23:27:51.697Z,7.82
2017-09-21T23:30:20.533Z,6.57
2017-09-21T23:32:48.642Z,6.22
2017-09-21T23:35:16.714Z,6.32
2017-09-21T23:37:44.799Z,6.78
2017-09-21T23:40:13.265Z,6.87
2017-09-21T23:42:41.342Z,9.75
2017-09-21T23:45:09.447Z,7.22
2017-09-21T23:47:38.285Z,6.12
2017-09-21T23:50:06.362Z,6.30
2017-09-21T23:52:34.501Z,6.03
2017-09-21T23:55:03.314Z,10.13
2017-09-21T23:57:31.394Z,6.03
